| time (UTC) | temp F | wind direction | speed MPH | gust MPH | rain 1hr in | rain 24hr in | rain mn in | humidity % | barometer mb |
| 20260904004536 | 49 | 152 | 5.0 | 7.0 | 0.00 | 0.00 | 0.00 | 97 | 1002.1 |
| 20260904003535 | 49 | 148 | 5.0 | 7.0 | 0.00 | 0.00 | 0.00 | 97 | 1002.2 |
| 20260904002554 | 50 | 168 | 4.0 | 7.0 | 0.00 | 0.00 | 0.00 | 95 | 1002.4 |
| 20260904001533 | 50 | 169 | 5.0 | 7.0 | 0.00 | 0.00 | 0.00 | 95 | 1002.5 |
| 20260904000532 | 50 | 178 | 5.0 | 9.0 | 0.00 | 0.00 | 0.00 | 94 | 1002.5 |
| 20260903235531 | 50 | 167 | 4.0 | 8.0 | 0.00 | 0.00 | 0.00 | 95 | 1002.5 |
| 20260903234532 | 50 | 167 | 5.0 | 8.0 | 0.00 | 0.00 | 0.00 | 94 | 1002.7 |
| 20260903233531 | 49 | 164 | 5.0 | 7.0 | 0.00 | 0.00 | 0.00 | 95 | 1002.8 |
| 20260903232548 | 49 | 154 | 4.0 | 6.0 | 0.00 | 0.00 | 0.00 | 95 | 1002.8 |
| 20260903231547 | 50 | 162 | 5.0 | 9.0 | 0.00 | 0.00 | 0.00 | 94 | 1002.9 |
| 20260903230526 | 50 | 171 | 5.0 | 9.0 | 0.00 | 0.00 | 0.00 | 92 | 1003.1 |
| 20260903225525 | 50 | 179 | 4.0 | 8.0 | 0.00 | 0.00 | 0.00 | 92 | 1003.2 |
| 20260903224524 | 50 | 178 | 5.0 | 8.0 | 0.00 | 0.00 | 0.00 | 92 | 1003.2 |
| 20260903223523 | 49 | 171 | 5.0 | 8.0 | 0.00 | 0.00 | 0.00 | 92 | 1003.3 |
| 20260903222522 | 51 | 189 | 5.0 | 10.0 | 0.00 | 0.00 | 0.00 | 90 | 1003.3 |
| 20260903221521 | 50 | 191 | 5.0 | 10.0 | 0.00 | 0.00 | 0.00 | 90 | 1003.4 |
| 20260903220520 | 51 | 195 | 5.0 | 10.0 | 0.00 | 0.00 | 0.00 | 89 | 1003.4 |
| 20260903215519 | 51 | 201 | 7.0 | 10.0 | 0.00 | 0.00 | 0.00 | 88 | 1003.5 |
| 20260903214518 | 51 | 185 | 5.0 | 10.0 | 0.00 | 0.00 | 0.00 | 88 | 1003.5 |
| 20260903213517 | 50 | 185 | 5.0 | 9.0 | 0.00 | 0.00 | 0.00 | 87 | 1003.6 |
| 20260903212516 | 51 | 195 | 5.0 | 9.0 | 0.00 | 0.00 | 0.00 | 86 | 1003.7 |
| 20260903211545 | 51 | 189 | 5.0 | 9.0 | 0.00 | 0.00 | 0.00 | 86 | 1003.7 |
| 20260903210544 | 50 | 176 | 4.0 | 8.0 | 0.00 | 0.00 | 0.00 | 87 | 1003.8 |
| 20260903205543 | 51 | 194 | 6.0 | 10.0 | 0.00 | 0.00 | 0.00 | 85 | 1003.9 |
| 20260903204602 | 50 | 180 | 5.0 | 10.0 | 0.00 | 0.00 | 0.00 | 86 | 1003.9 |
| 20260903203541 | 50 | 170 | 4.0 | 7.0 | 0.00 | 0.00 | 0.00 | 86 | 1003.9 |
| 20260903202600 | 50 | 164 | 4.0 | 7.0 | 0.00 | 0.00 | 0.00 | 86 | 1004.0 |
| 20260903201559 | 50 | 178 | 3.0 | 7.0 | 0.00 | 0.00 | 0.00 | 84 | 1004.1 |
| 20260903200537 | 51 | 183 | 4.0 | 6.0 | 0.00 | 0.00 | 0.00 | 84 | 1004.1 |
| 20260903195537 | 51 | 188 | 4.0 | 7.0 | 0.00 | 0.00 | 0.00 | 83 | 1004.2 |
| 20260903194536 | 51 | 192 | 4.0 | 7.0 | 0.00 | 0.00 | 0.00 | 82 | 1004.3 |
| 20260903193535 | 51 | 188 | 4.0 | 7.0 | 0.00 | 0.00 | 0.00 | 82 | 1004.4 |
| 20260903192534 | 51 | 191 | 4.0 | 7.0 | 0.00 | 0.00 | 0.00 | 81 | 1004.4 |
| 20260903191533 | 52 | 193 | 4.0 | 8.0 | 0.00 | 0.00 | 0.00 | 80 | 1004.3 |
| 20260903190533 | 52 | 190 | 4.0 | 8.0 | 0.00 | 0.00 | 0.00 | 79 | 1004.3 |
| 20260903185532 | 52 | 193 | 4.0 | 8.0 | 0.00 | 0.00 | 0.00 | 78 | 1004.4 |
| 20260903184532 | 53 | 192 | 4.0 | 8.0 | 0.00 | 0.00 | 0.00 | 77 | 1004.4 |
| 20260903183530 | 53 | 192 | 4.0 | 8.0 | 0.00 | 0.00 | 0.00 | 76 | 1004.4 |
| 20260903182531 | 53 | 197 | 5.0 | 10.0 | 0.00 | 0.00 | 0.00 | 74 | 1004.4 |
| 20260903181528 | 54 | 202 | 5.0 | 9.0 | 0.00 | 0.00 | 0.00 | 74 | 1004.5 |
| 20260903180527 | 54 | 202 | 6.0 | 10.0 | 0.00 | 0.00 | 0.00 | 72 | 1004.5 |
| 20260903175527 | 55 | 211 | 7.0 | 11.0 | 0.00 | 0.00 | 0.00 | 71 | 1004.6 |
| 20260903174526 | 55 | 220 | 10.0 | 14.0 | 0.00 | 0.00 | 0.00 | 69 | 1004.6 |
| 20260903173525 | 56 | 222 | 11.0 | 18.0 | 0.00 | 0.00 | 0.00 | 68 | 1004.7 |
| 20260903172523 | 56 | 222 | 12.0 | 18.0 | 0.00 | 0.00 | 0.00 | 67 | 1004.6 |
| 20260903171521 | 56 | 218 | 11.0 | 17.0 | 0.00 | 0.00 | 0.00 | 66 | 1004.5 |
| 20260903170520 | 57 | 220 | 12.0 | 18.0 | 0.00 | 0.00 | 0.00 | 66 | 1004.5 |
| 20260903165520 | 57 | 221 | 12.0 | 19.0 | 0.00 | 0.00 | 0.00 | 68 | 1004.4 |
| 20260903164520 | 58 | 223 | 13.0 | 20.0 | 0.00 | 0.00 | 0.00 | 65 | 1004.5 |
| 20260903163518 | 58 | 226 | 13.0 | 21.0 | 0.00 | 0.00 | 0.00 | 66 | 1004.5 |
| 20260903162516 | 59 | 227 | 11.0 | 18.0 | 0.00 | 0.00 | 0.00 | 67 | 1004.4 |
| 20260903161545 | 59 | 233 | 11.0 | 20.0 | 0.00 | 0.00 | 0.00 | 67 | 1004.4 |
| 20260903160544 | 60 | 226 | 9.0 | 16.0 | 0.00 | 0.00 | 0.00 | 65 | 1004.4 |
| 20260903155543 | 61 | 233 | 12.0 | 19.0 | 0.00 | 0.00 | 0.00 | 63 | 1004.4 |
| 20260903154543 | 62 | 235 | 13.0 | 21.0 | 0.00 | 0.00 | 0.00 | 62 | 1004.4 |
| 20260903153543 | 62 | 229 | 14.0 | 21.0 | 0.00 | 0.00 | 0.00 | 61 | 1004.4 |
| 20260903152540 | 62 | 227 | 14.0 | 23.0 | 0.00 | 0.00 | 0.00 | 58 | 1004.3 |
| 20260903151539 | 62 | 227 | 15.0 | 23.0 | 0.00 | 0.00 | 0.00 | 59 | 1004.3 |
| 20260903150540 | 62 | 219 | 13.0 | 20.0 | 0.00 | 0.00 | 0.00 | 58 | 1004.3 |
| 20260903145539 | 62 | 223 | 12.0 | 18.0 | 0.00 | 0.00 | 0.00 | 58 | 1004.3 |
| 20260903144538 | 62 | 229 | 12.0 | 19.0 | 0.00 | 0.00 | 0.00 | 59 | 1004.3 |
| 20260903143537 | 63 | 239 | 15.0 | 22.0 | 0.00 | 0.00 | 0.00 | 57 | 1004.3 |
| 20260903142557 | 63 | 228 | 13.0 | 22.0 | 0.00 | 0.00 | 0.00 | 56 | 1004.3 |
| 20260903141535 | 63 | 238 | 13.0 | 21.0 | 0.00 | 0.00 | 0.00 | 57 | 1004.3 |
| 20260903140534 | 63 | 229 | 14.0 | 21.0 | 0.00 | 0.00 | 0.00 | 55 | 1004.4 |
| 20260903135533 | 63 | 226 | 14.0 | 20.0 | 0.00 | 0.00 | 0.00 | 56 | 1004.4 |
| 20260903134532 | 63 | 228 | 14.0 | 21.0 | 0.00 | 0.00 | 0.00 | 55 | 1004.4 |
| 20260903133531 | 64 | 225 | 15.0 | 25.0 | 0.00 | 0.00 | 0.00 | 52 | 1004.4 |
| 20260903132530 | 63 | 228 | 14.0 | 25.0 | 0.00 | 0.00 | 0.00 | 53 | 1004.4 |
| 20260903131550 | 63 | 233 | 13.0 | 20.0 | 0.00 | 0.00 | 0.00 | 57 | 1004.3 |
| 20260903130528 | 64 | 235 | 13.0 | 19.0 | 0.00 | 0.00 | 0.00 | 55 | 1004.4 |
| 20260903125528 | 65 | 221 | 13.0 | 20.0 | 0.00 | 0.00 | 0.00 | 51 | 1004.3 |
| 20260903124527 | 64 | 223 | 14.0 | 20.0 | 0.00 | 0.00 | 0.00 | 52 | 1004.3 |
| 20260903123545 | 64 | 243 | 13.0 | 20.0 | 0.00 | 0.00 | 0.00 | 55 | 1004.3 |
| 20260903122524 | 65 | 236 | 11.0 | 18.0 | 0.00 | 0.00 | 0.00 | 53 | 1004.3 |
| 20260903121523 | 65 | 231 | 12.0 | 19.0 | 0.00 | 0.00 | 0.00 | 53 | 1004.3 |
| 20260903120545 | 64 | 238 | 13.0 | 21.0 | 0.00 | 0.00 | 0.00 | 52 | 1004.4 |
| 20260903115521 | 65 | 236 | 12.0 | 17.0 | 0.00 | 0.00 | 0.00 | 52 | 1004.4 |
| 20260903114520 | 65 | 241 | 12.0 | 19.0 | 0.00 | 0.00 | 0.00 | 51 | 1004.4 |
| 20260903113519 | 64 | 231 | 13.0 | 18.0 | 0.00 | 0.00 | 0.00 | 51 | 1004.4 |
| 20260903112540 | 63 | 228 | 12.0 | 18.0 | 0.00 | 0.00 | 0.00 | 55 | 1004.4 |
| 20260903111518 | 63 | 234 | 11.0 | 20.0 | 0.00 | 0.00 | 0.00 | 54 | 1004.5 |
| 20260903110517 | 64 | 232 | 12.0 | 16.0 | 0.00 | 0.00 | 0.00 | 53 | 1004.5 |
| 20260903105545 | 62 | 230 | 11.0 | 19.0 | 0.00 | 0.00 | 0.00 | 56 | 1004.6 |
| 20260903104544 | 62 | 226 | 12.0 | 19.0 | 0.00 | 0.00 | 0.00 | 54 | 1004.7 |
| 20260903103543 | 63 | 220 | 12.0 | 17.0 | 0.00 | 0.00 | 0.00 | 52 | 1004.6 |
| 20260903102542 | 65 | 221 | 13.0 | 21.0 | 0.00 | 0.00 | 0.00 | 51 | 1004.6 |
| 20260903101542 | 64 | 229 | 12.0 | 19.0 | 0.00 | 0.00 | 0.00 | 48 | 1004.7 |
| 20260903100540 | 64 | 233 | 12.0 | 19.0 | 0.00 | 0.00 | 0.00 | 53 | 1004.7 |
| 20260903095539 | 64 | 237 | 11.0 | 19.0 | 0.00 | 0.00 | 0.00 | 50 | 1004.7 |
| 20260903094538 | 61 | 247 | 9.0 | 16.0 | 0.00 | 0.00 | 0.00 | 60 | 1004.8 |
| 20260903093539 | 62 | 238 | 10.0 | 19.0 | 0.00 | 0.00 | 0.00 | 62 | 1004.8 |
| 20260903092537 | 64 | 216 | 13.0 | 21.0 | 0.00 | 0.00 | 0.00 | 61 | 1004.8 |
| 20260903091536 | 65 | 210 | 10.0 | 19.0 | 0.00 | 0.00 | 0.00 | 59 | 1004.8 |
| 20260903090535 | 64 | 218 | 14.0 | 22.0 | 0.00 | 0.00 | 0.00 | 58 | 1004.8 |
| 20260903085554 | 63 | 226 | 13.0 | 20.0 | 0.00 | 0.00 | 0.00 | 60 | 1004.8 |
| 20260903084553 | 63 | 218 | 12.0 | 19.0 | 0.00 | 0.00 | 0.00 | 61 | 1004.9 |
| 20260903083532 | 61 | 215 | 11.0 | 15.0 | 0.00 | 0.00 | 0.00 | 63 | 1005.0 |
| 20260903082531 | 60 | 223 | 10.0 | 15.0 | 0.00 | 0.00 | 0.00 | 67 | 1005.0 |
| 20260903081530 | 60 | 229 | 9.0 | 16.0 | 0.00 | 0.00 | 0.00 | 69 | 1005.1 |
| 20260903080529 | 60 | 233 | 10.0 | 16.0 | 0.00 | 0.00 | 0.00 | 69 | 1005.1 |
| 20260903075528 | 60 | 226 | 11.0 | 17.0 | 0.00 | 0.00 | 0.00 | 70 | 1005.2 |
| 20260903074527 | 60 | 222 | 10.0 | 17.0 | 0.00 | 0.00 | 0.00 | 71 | 1005.1 |
| 20260903073526 | 60 | 222 | 10.0 | 18.0 | 0.00 | 0.00 | 0.00 | 72 | 1005.1 |
| 20260903072525 | 60 | 224 | 13.0 | 20.0 | 0.00 | 0.00 | 0.00 | 73 | 1005.1 |
| 20260903071524 | 61 | 223 | 11.0 | 18.0 | 0.00 | 0.00 | 0.00 | 72 | 1005.0 |
| 20260903070523 | 60 | 215 | 11.0 | 17.0 | 0.00 | 0.00 | 0.00 | 72 | 1005.0 |
| 20260903065523 | 60 | 222 | 11.0 | 16.0 | 0.00 | 0.00 | 0.00 | 74 | 1005.1 |
| 20260903064521 | 60 | 225 | 11.0 | 16.0 | 0.00 | 0.00 | 0.00 | 75 | 1005.1 |
| 20260903063541 | 60 | 227 | 10.0 | 18.0 | 0.00 | 0.00 | 0.00 | 76 | 1005.1 |
| 20260903062519 | 59 | 226 | 9.0 | 15.0 | 0.00 | 0.00 | 0.00 | 79 | 1005.1 |
| 20260903061518 | 59 | 223 | 8.0 | 13.0 | 0.00 | 0.00 | 0.00 | 80 | 1005.1 |
| 20260903060520 | 58 | 216 | 8.0 | 12.0 | 0.00 | 0.00 | 0.00 | 82 | 1005.2 |
| 20260903055517 | 57 | 214 | 7.0 | 12.0 | 0.00 | 0.00 | 0.00 | 84 | 1005.2 |
| 20260903054546 | 57 | 214 | 7.0 | 12.0 | 0.00 | 0.00 | 0.00 | 87 | 1005.2 |
| 20260903053546 | 56 | 211 | 7.0 | 8.0 | 0.00 | 0.00 | 0.00 | 88 | 1005.2 |
| 20260903052545 | 55 | 214 | 6.0 | 10.0 | 0.00 | 0.00 | 0.00 | 91 | 1005.2 |
| 20260903051543 | 55 | 200 | 5.0 | 8.0 | 0.00 | 0.00 | 0.00 | 92 | 1005.3 |
| 20260903050543 | 55 | 199 | 5.0 | 7.0 | 0.00 | 0.00 | 0.00 | 93 | 1005.3 |
| 20260903045542 | 54 | 207 | 6.0 | 9.0 | 0.00 | 0.00 | 0.00 | 92 | 1005.3 |
| 20260903044601 | 55 | 205 | 7.0 | 10.0 | 0.00 | 0.00 | 0.00 | 92 | 1005.4 |
| 20260903043540 | 54 | 209 | 7.0 | 11.0 | 0.00 | 0.00 | 0.00 | 93 | 1005.4 |
| 20260903042538 | 55 | 203 | 6.0 | 10.0 | 0.00 | 0.00 | 0.00 | 93 | 1005.3 |
| 20260903041538 | 54 | 208 | 7.0 | 10.0 | 0.00 | 0.00 | 0.00 | 95 | 1005.3 |
| 20260903040537 | 55 | 208 | 6.0 | 9.0 | 0.00 | 0.00 | 0.00 | 95 | 1005.3 |
| 20260903035536 | 55 | 193 | 5.0 | 9.0 | 0.00 | 0.00 | 0.00 | 96 | 1005.3 |
| 20260903034535 | 55 | 181 | 4.0 | 8.0 | 0.00 | 0.00 | 0.00 | 97 | 1005.3 |
| 20260903033554 | 55 | 192 | 5.0 | 9.0 | 0.00 | 0.00 | 0.00 | 97 | 1005.3 |
| 20260903032532 | 55 | 196 | 6.0 | 10.0 | 0.00 | 0.00 | 0.00 | 98 | 1005.3 |
| 20260903031531 | 55 | 198 | 5.0 | 9.0 | 0.00 | 0.00 | 0.00 | 98 | 1005.2 |
| 20260903030532 | 55 | 201 | 5.0 | 9.0 | 0.00 | 0.00 | 0.00 | 98 | 1005.3 |
| 20260903025529 | 56 | 204 | 5.0 | 9.0 | 0.00 | 0.00 | 0.00 | 98 | 1005.3 |
| 20260903024528 | 56 | 197 | 5.0 | 9.0 | 0.00 | 0.00 | 0.00 | 98 | 1005.4 |
| 20260903023547 | 56 | 198 | 6.0 | 9.0 | 0.00 | 0.00 | 0.00 | 98 | 1005.4 |
| 20260903022528 | 56 | 195 | 6.0 | 10.0 | 0.00 | 0.00 | 0.00 | 98 | 1005.4 |
| 20260903021527 | 56 | 193 | 6.0 | 11.0 | 0.00 | 0.00 | 0.00 | 98 | 1005.4 |
| 20260903020526 | 56 | 184 | 6.0 | 11.0 | 0.00 | 0.00 | 0.00 | 98 | 1005.5 |
| 20260903015525 | 56 | 175 | 6.0 | 9.0 | 0.00 | 0.00 | 0.00 | 98 | 1005.5 |
| 20260903014544 | 56 | 171 | 5.0 | 9.0 | 0.00 | 0.00 | 0.00 | 99 | 1005.5 |
| 20260903013521 | 56 | 174 | 5.0 | 7.0 | 0.00 | 0.00 | 0.00 | 98 | 1005.5 |
| 20260903012520 | 56 | 174 | 5.0 | 7.0 | 0.00 | 0.00 | 0.00 | 99 | 1005.6 |
| 20260903011519 | 56 | 176 | 5.0 | 8.0 | 0.00 | 0.00 | 0.00 | 99 | 1005.6 |
| 20260903010518 | 56 | 179 | 5.0 | 8.0 | 0.00 | 0.00 | 0.00 | 99 | 1005.7 |
| 20260903005517 | 56 | 171 | 5.0 | 8.0 | 0.00 | 0.00 | 0.00 | 99 | 1005.8 |